Time;durP1;ratioP1;P1;durP2;ratioP2;P2;SDS_P1;SDS_P2;PMS_P1;PMS_P2;Temp;Humidity;BMP_temperature;BMP_pressure;BME280_temperature;BME280_humidity;BME280_pressure;Samples;Min_cycle;Max_cycle;Signal;HPM_P1;HPM_P2
2023/01/04 00:00:25;;;;;;;7.17;3.13;;;;;;;;;;5041765;28;20229;-78
2023/01/04 00:02:52;;;;;;;4.03;2.87;;;;;;;;;;5051833;28;20202;-78
2023/01/04 00:05:19;;;;;;;2.90;2.70;;;;;;;;;;5051820;28;20217;-78
2023/01/04 00:07:46;;;;;;;3.70;2.90;;;;;;;;;;5050355;28;20225;-78
2023/01/04 00:10:13;;;;;;;8.60;3.00;;;;;;;;;;5051171;28;20205;-78
2023/01/04 00:12:40;;;;;;;2.83;2.57;;;;;;;;;;5051863;28;20213;-78
2023/01/04 00:15:09;;;;;;;3.23;2.80;;;;;;;;;;5051627;28;20213;-78
2023/01/04 00:17:36;;;;;;;2.90;2.57;;;;;;;;;;5050924;28;20232;-78
2023/01/04 00:20:04;;;;;;;6.43;2.60;;;;;;;;;;5051404;28;20213;-78
2023/01/04 00:22:33;;;;;;;3.97;3.10;;;;;;;;;;5051670;28;20221;-77
2023/01/04 00:25:00;;;;;;;3.50;3.00;;;;;;;;;;5051833;28;20206;-77
2023/01/04 00:27:27;;;;;;;3.93;2.77;;;;;;;;;;5042114;28;20219;-77
2023/01/04 00:29:54;;;;;;;3.03;2.73;;;;;;;;;;5031562;28;20199;-77
2023/01/04 00:32:22;;;;;;;2.67;2.47;;;;;;;;;;5031449;28;20335;-77
2023/01/04 00:34:49;;;;;;;4.07;3.00;;;;;;;;;;5031897;28;20256;-77
2023/01/04 00:37:16;;;;;;;2.80;2.60;;;;;;;;;;5031065;28;20244;-77
2023/01/04 00:39:43;;;;;;;4.90;3.60;;;;;;;;;;5031358;28;20231;-77
2023/01/04 00:42:10;;;;;;;4.17;3.50;;;;;;;;;;5031432;28;20739;-77
2023/01/04 00:44:37;;;;;;;3.83;3.50;;;;;;;;;;5031602;28;20202;-77
2023/01/04 00:47:05;;;;;;;5.17;4.47;;;;;;;;;;5033333;28;20242;-78
2023/01/04 00:49:33;;;;;;;5.67;4.13;;;;;;;;;;5039510;28;20603;-77
2023/01/04 00:52:01;;;;;;;4.83;4.43;;;;;;;;;;5035030;28;20234;-77
2023/01/04 00:54:28;;;;;;;5.30;4.10;;;;;;;;;;5035467;28;20666;-77
2023/01/04 00:56:55;;;;;;;6.60;4.80;;;;;;;;;;5034853;28;20249;-77
2023/01/04 00:59:22;;;;;;;3.60;3.30;;;;;;;;;;5035089;28;20230;-77
2023/01/04 01:01:49;;;;;;;3.23;2.97;;;;;;;;;;5034711;28;20265;-77
2023/01/04 01:04:17;;;;;;;5.27;4.77;;;;;;;;;;5035304;28;20215;-77
2023/01/04 01:06:46;;;;;;;5.93;5.10;;;;;;;;;;5052522;28;20318;-77
2023/01/04 01:09:13;;;;;;;8.87;5.70;;;;;;;;;;5054929;28;20230;-78
2023/01/04 01:11:40;;;;;;;7.67;6.57;;;;;;;;;;5054521;28;20652;-77
2023/01/04 01:14:08;;;;;;;8.77;6.50;;;;;;;;;;5054359;28;20198;-77
2023/01/04 01:16:35;;;;;;;5.00;4.20;;;;;;;;;;5046251;28;20230;-78
2023/01/04 01:19:02;;;;;;;14.57;9.43;;;;;;;;;;5034514;28;20261;-77
2023/01/04 01:21:31;;;;;;;11.30;8.73;;;;;;;;;;5034484;28;20230;-78
2023/01/04 01:23:59;;;;;;;8.67;6.77;;;;;;;;;;5035050;28;20886;-77
2023/01/04 01:26:27;;;;;;;10.23;6.50;;;;;;;;;;5034455;28;20237;-77
2023/01/04 01:28:54;;;;;;;10.23;6.93;;;;;;;;;;5035170;28;20226;-77
2023/01/04 01:31:22;;;;;;;12.23;6.83;;;;;;;;;;5054232;28;20240;-78
2023/01/04 01:33:49;;;;;;;7.93;6.63;;;;;;;;;;5054490;28;20604;-77
2023/01/04 01:36:17;;;;;;;12.13;9.17;;;;;;;;;;5046600;28;20639;-78
2023/01/04 01:38:45;;;;;;;12.03;9.67;;;;;;;;;;5043951;28;20616;-78
2023/01/04 01:41:17;;;;;;;14.10;9.80;;;;;;;;;;5054066;28;20245;-77
2023/01/04 01:43:49;;;;;;;12.33;9.47;;;;;;;;;;5054503;28;20194;-78
2023/01/04 01:46:17;;;;;;;12.03;8.10;;;;;;;;;;5053877;28;20644;-78
2023/01/04 01:48:44;;;;;;;10.03;7.23;;;;;;;;;;5052874;28;20229;-77
2023/01/04 01:51:11;;;;;;;8.80;6.63;;;;;;;;;;5053703;28;20233;-77
2023/01/04 01:53:40;;;;;;;8.53;6.13;;;;;;;;;;5054037;28;20576;-77
2023/01/04 01:56:09;;;;;;;9.43;5.90;;;;;;;;;;5053690;28;20238;-77
2023/01/04 01:58:39;;;;;;;7.87;6.00;;;;;;;;;;5053467;28;20645;-77
2023/01/04 02:01:06;;;;;;;7.37;6.23;;;;;;;;;;5053794;28;20237;-77
2023/01/04 02:03:36;;;;;;;7.80;5.00;;;;;;;;;;5053997;28;20202;-77
2023/01/04 02:06:04;;;;;;;8.23;4.60;;;;;;;;;;5053485;28;20236;-77
2023/01/04 02:08:31;;;;;;;5.83;5.23;;;;;;;;;;5051680;28;20233;-77
2023/01/04 02:10:59;;;;;;;7.60;6.07;;;;;;;;;;5036004;28;20260;-77
2023/01/04 02:14:25;;;;;;;9.67;5.83;;;;;;;;;;5043214;28;20206;-77
2023/01/04 02:16:17;;;;;;;7.77;5.63;;;;;;;;;;5053378;28;20256;-78
2023/01/04 02:18:46;;;;;;;9.00;5.37;;;;;;;;;;5053392;28;20234;-77
2023/01/04 02:21:17;;;;;;;6.87;4.00;;;;;;;;;;5053304;28;20755;-77
2023/01/04 02:24:17;;;;;;;7.17;4.50;;;;;;;;;;5053996;28;20562;-77
2023/01/04 02:27:01;;;;;;;3.47;3.17;;;;;;;;;;5011170;28;20265;-77
2023/01/04 02:29:49;;;;;;;11.73;4.20;;;;;;;;;;5001821;28;20228;-77
2023/01/04 02:32:19;;;;;;;5.17;3.50;;;;;;;;;;5026968;28;20284;-77
2023/01/04 02:34:49;;;;;;;4.73;3.70;;;;;;;;;;5052424;28;20201;-77
2023/01/04 02:37:19;;;;;;;4.43;3.03;;;;;;;;;;5052914;28;20608;-78
2023/01/04 02:39:49;;;;;;;4.00;3.27;;;;;;;;;;5053559;28;20229;-77
2023/01/04 02:42:19;;;;;;;3.33;3.03;;;;;;;;;;5041137;28;20263;-78
2023/01/04 02:44:54;;;;;;;3.30;2.43;;;;;;;;;;5033657;28;20658;-78
2023/01/04 02:50:31;;;;;;;3.40;3.10;;;;;;;;;;5052705;28;20273;-78
2023/01/04 02:52:59;;;;;;;3.73;2.83;;;;;;;;;;5052688;28;20209;-77
2023/01/04 02:55:30;;;;;;;3.53;3.23;;;;;;;;;;5040676;28;20230;-78
2023/01/04 02:57:59;;;;;;;5.93;3.10;;;;;;;;;;5032764;28;20234;-78
2023/01/04 03:00:31;;;;;;;3.47;2.60;;;;;;;;;;5032627;28;20226;-77
2023/01/04 03:06:16;;;;;;;2.20;2.10;;;;;;;;;;5032562;28;20372;-77
2023/01/04 03:08:47;;;;;;;3.93;2.60;;;;;;;;;;5045517;28;20264;-77
2023/01/04 03:13:58;;;;;;;3.90;2.93;;;;;;;;;;5052358;28;20705;-77
2023/01/04 03:16:26;;;;;;;3.00;2.70;;;;;;;;;;5043847;28;20361;-77
2023/01/04 03:18:57;;;;;;;3.23;2.90;;;;;;;;;;5032355;28;20261;-77
2023/01/04 03:21:24;;;;;;;2.80;2.50;;;;;;;;;;5032221;28;20238;-77
2023/01/04 03:35:26;;;;;;;2.83;2.63;;;;;;;;;;5032210;28;20201;-78
2023/01/04 03:49:00;;;;;;;4.93;3.37;;;;;;;;;;5051888;28;20619;-77
2023/01/04 03:51:31;;;;;;;4.70;3.00;;;;;;;;;;5051714;28;20729;-77
2023/01/04 03:54:02;;;;;;;5.03;2.73;;;;;;;;;;5052005;28;20206;-77
2023/01/04 03:56:31;;;;;;;3.80;2.93;;;;;;;;;;5051810;28;20663;-77
2023/01/04 03:58:58;;;;;;;3.10;2.80;;;;;;;;;;5052021;28;20225;-77
2023/01/04 04:01:26;;;;;;;3.27;2.90;;;;;;;;;;5051623;28;20237;-78
2023/01/04 04:09:24;;;;;;;2.83;2.63;;;;;;;;;;5050956;28;20232;-77
2023/01/04 04:11:51;;;;;;;2.60;2.40;;;;;;;;;;5051583;28;20234;-77
2023/01/04 04:14:18;;;;;;;3.40;2.90;;;;;;;;;;5051701;28;20757;-78
2023/01/04 04:16:45;;;;;;;2.73;2.53;;;;;;;;;;5051238;28;20236;-77
2023/01/04 04:19:12;;;;;;;2.70;2.50;;;;;;;;;;5051929;28;20234;-77
2023/01/04 04:21:41;;;;;;;2.60;2.40;;;;;;;;;;5056866;28;20240;-76
2023/01/04 04:24:08;;;;;;;3.33;3.03;;;;;;;;;;5058254;28;20221;-77
2023/01/04 04:26:35;;;;;;;3.17;2.90;;;;;;;;;;5057258;28;20245;-77
2023/01/04 04:29:02;;;;;;;1.83;1.73;;;;;;;;;;5038255;28;20223;-77
2023/01/04 04:31:29;;;;;;;2.70;2.50;;;;;;;;;;5037806;28;20288;-76
2023/01/04 04:33:56;;;;;;;2.43;2.30;;;;;;;;;;5038620;28;20206;-77
2023/01/04 04:36:23;;;;;;;3.23;2.40;;;;;;;;;;5050765;28;20245;-77
2023/01/04 04:38:52;;;;;;;3.00;2.80;;;;;;;;;;5057822;28;20230;-77
2023/01/04 04:44:03;;;;;;;3.03;2.83;;;;;;;;;;5057482;28;20197;-77
2023/01/04 04:46:30;;;;;;;2.93;2.67;;;;;;;;;;5057807;28;20312;-77
2023/01/04 04:48:57;;;;;;;2.90;2.27;;;;;;;;;;5038498;28;20230;-77
2023/01/04 04:51:25;;;;;;;6.20;2.37;;;;;;;;;;5037747;28;20234;-77
2023/01/04 04:53:53;;;;;;;2.80;2.60;;;;;;;;;;5038165;28;20201;-77
2023/01/04 04:56:20;;;;;;;2.43;2.23;;;;;;;;;;5037749;28;20241;-77
2023/01/04 04:58:47;;;;;;;3.93;2.60;;;;;;;;;;5039002;28;20699;-77
2023/01/04 05:01:14;;;;;;;3.07;2.77;;;;;;;;;;5052514;28;20713;-77
2023/01/04 05:03:41;;;;;;;4.67;2.60;;;;;;;;;;5037997;28;20217;-77
2023/01/04 05:06:08;;;;;;;7.13;3.03;;;;;;;;;;5037846;28;20234;-77
2023/01/04 05:08:35;;;;;;;3.77;2.70;;;;;;;;;;5037905;28;20231;-77
2023/01/04 05:11:06;;;;;;;2.63;2.43;;;;;;;;;;5053003;28;20275;-77
2023/01/04 05:13:32;;;;;;;3.40;2.63;;;;;;;;;;5057926;28;20194;-77
2023/01/04 05:15:59;;;;;;;7.03;2.50;;;;;;;;;;5057532;28;20249;-76
2023/01/04 05:18:26;;;;;;;2.97;2.13;;;;;;;;;;5057599;28;20256;-76
2023/01/04 05:20:53;;;;;;;2.73;2.47;;;;;;;;;;5057008;28;20233;-76
2023/01/04 05:23:21;;;;;;;2.50;2.30;;;;;;;;;;5057763;28;20206;-76
2023/01/04 05:25:51;;;;;;;2.07;1.97;;;;;;;;;;5057285;28;20260;-76
2023/01/04 05:28:19;;;;;;;3.37;3.07;;;;;;;;;;5057514;28;20225;-76
2023/01/04 05:30:52;;;;;;;4.53;2.50;;;;;;;;;;5057234;28;20233;-76
2023/01/04 05:33:19;;;;;;;2.13;2.03;;;;;;;;;;5052668;28;20221;-76
2023/01/04 05:35:46;;;;;;;4.07;2.77;;;;;;;;;;5049733;28;20238;-76
2023/01/04 05:38:13;;;;;;;3.20;2.90;;;;;;;;;;5034270;28;20227;-77
2023/01/04 05:40:40;;;;;;;2.80;2.60;;;;;;;;;;5034129;28;20234;-76
2023/01/04 05:43:08;;;;;;;5.23;3.53;;;;;;;;;;5034533;28;20678;-76
2023/01/04 05:45:36;;;;;;;3.33;3.00;;;;;;;;;;5052033;28;20579;-76
2023/01/04 05:48:03;;;;;;;5.57;3.37;;;;;;;;;;5054026;28;20284;-76
2023/01/04 05:50:30;;;;;;;5.53;3.87;;;;;;;;;;5053803;28;20236;-77
2023/01/04 05:52:57;;;;;;;5.07;3.47;;;;;;;;;;5043965;28;20198;-76
2023/01/04 05:55:24;;;;;;;4.63;3.27;;;;;;;;;;5034141;28;20230;-77
2023/01/04 05:57:51;;;;;;;7.93;4.07;;;;;;;;;;5033853;28;20226;-76
2023/01/04 06:00:18;;;;;;;3.97;3.00;;;;;;;;;;5032972;28;20233;-77
2023/01/04 06:02:47;;;;;;;9.83;6.07;;;;;;;;;;5034439;28;20210;-76
2023/01/04 06:05:14;;;;;;;5.03;3.70;;;;;;;;;;5033772;28;20205;-76
2023/01/04 06:07:41;;;;;;;4.90;4.43;;;;;;;;;;5033743;28;20280;-76
2023/01/04 06:10:09;;;;;;;6.23;4.40;;;;;;;;;;5033581;28;20210;-77
2023/01/04 06:12:37;;;;;;;6.37;4.17;;;;;;;;;;5033856;28;20203;-75
2023/01/04 06:15:04;;;;;;;6.77;3.93;;;;;;;;;;5040023;28;20225;-76
2023/01/04 06:17:31;;;;;;;5.37;3.97;;;;;;;;;;5053563;28;20214;-76
2023/01/04 06:20:00;;;;;;;3.57;3.27;;;;;;;;;;5053455;28;20237;-75
2023/01/04 06:22:27;;;;;;;17.17;8.97;;;;;;;;;;5053022;28;20752;-76
2023/01/04 06:24:54;;;;;;;6.93;4.97;;;;;;;;;;5052320;28;20696;-76
2023/01/04 06:27:22;;;;;;;6.53;4.73;;;;;;;;;;5053042;28;20233;-76
2023/01/04 06:29:49;;;;;;;4.87;3.90;;;;;;;;;;5053159;28;20202;-76
2023/01/04 06:32:16;;;;;;;5.37;4.20;;;;;;;;;;5053053;28;20241;-76
2023/01/04 06:34:43;;;;;;;6.60;5.10;;;;;;;;;;5050542;28;20203;-76
2023/01/04 06:37:12;;;;;;;4.50;4.10;;;;;;;;;;5033203;28;20235;-76
2023/01/04 06:39:39;;;;;;;7.07;4.63;;;;;;;;;;5033103;28;20288;-76
2023/01/04 06:42:43;;;;;;;4.10;3.70;;;;;;;;;;5032969;28;20745;-76
2023/01/04 06:44:53;;;;;;;6.23;3.93;;;;;;;;;;5032158;28;20662;-76
2023/01/04 06:47:20;;;;;;;4.13;3.63;;;;;;;;;;5032714;28;20242;-76
2023/01/04 06:49:47;;;;;;;5.20;4.07;;;;;;;;;;5033146;28;20253;-76
2023/01/04 06:52:15;;;;;;;5.13;4.60;;;;;;;;;;5032673;28;20745;-76
2023/01/04 06:54:42;;;;;;;6.30;3.60;;;;;;;;;;5034996;28;20685;-76
2023/01/04 06:57:09;;;;;;;3.70;3.40;;;;;;;;;;5052362;28;20238;-76
2023/01/04 06:59:36;;;;;;;3.83;3.13;;;;;;;;;;5052447;28;20256;-75
2023/01/04 07:02:04;;;;;;;6.57;4.60;;;;;;;;;;5052635;28;20242;-77
2023/01/04 07:04:31;;;;;;;5.80;3.97;;;;;;;;;;5052514;28;20217;-77
2023/01/04 07:06:58;;;;;;;6.00;3.77;;;;;;;;;;5051935;28;20237;-77
2023/01/04 07:09:26;;;;;;;4.57;3.33;;;;;;;;;;5052318;28;20222;-76
2023/01/04 07:11:53;;;;;;;5.83;4.53;;;;;;;;;;5052134;28;20229;-77
2023/01/04 07:14:20;;;;;;;4.20;3.87;;;;;;;;;;5052045;28;20582;-76
2023/01/04 07:16:47;;;;;;;5.47;4.13;;;;;;;;;;5051982;28;20238;-77
2023/01/04 07:19:14;;;;;;;5.00;3.70;;;;;;;;;;5052089;28;20237;-76
2023/01/04 07:21:41;;;;;;;5.13;4.33;;;;;;;;;;5051023;28;20561;-76
2023/01/04 07:24:09;;;;;;;5.70;3.80;;;;;;;;;;5052531;28;20245;-77
2023/01/04 07:26:37;;;;;;;4.87;4.47;;;;;;;;;;5049325;28;20237;-77
2023/01/04 07:29:16;;;;;;;5.27;4.53;;;;;;;;;;5032426;28;20230;-77
2023/01/04 07:31:44;;;;;;;6.07;4.10;;;;;;;;;;5031896;28;20246;-77
2023/01/04 07:34:11;;;;;;;4.47;4.03;;;;;;;;;;5032546;28;20210;-77
2023/01/04 07:36:39;;;;;;;4.40;3.83;;;;;;;;;;5043057;28;20230;-77
2023/01/04 07:39:06;;;;;;;5.20;4.03;;;;;;;;;;5052228;28;20230;-77
2023/01/04 07:41:33;;;;;;;4.67;3.77;;;;;;;;;;5052424;28;20230;-77
2023/01/04 07:44:02;;;;;;;5.87;4.10;;;;;;;;;;5047386;28;20206;-77
2023/01/04 07:46:29;;;;;;;5.47;4.87;;;;;;;;;;5032387;28;20272;-77
2023/01/04 07:48:56;;;;;;;5.53;4.93;;;;;;;;;;5032704;28;20233;-77
2023/01/04 07:51:23;;;;;;;5.67;5.17;;;;;;;;;;5032351;28;20634;-76
2023/01/04 07:53:50;;;;;;;2.80;2.60;;;;;;;;;;5033709;28;20211;-75
2023/01/04 07:56:18;;;;;;;5.97;4.67;;;;;;;;;;5047246;28;20233;-76
2023/01/04 07:58:45;;;;;;;3.17;2.97;;;;;;;;;;5051832;28;20237;-77
2023/01/04 08:01:14;;;;;;;4.63;4.17;;;;;;;;;;5051584;28;20240;-76
2023/01/04 08:03:41;;;;;;;8.80;4.73;;;;;;;;;;5046059;28;20202;-77
2023/01/04 08:06:09;;;;;;;3.53;3.23;;;;;;;;;;5051290;28;20241;-77
2023/01/04 08:08:37;;;;;;;6.83;4.50;;;;;;;;;;5051365;28;20725;-76
2023/01/04 08:11:04;;;;;;;4.57;3.93;;;;;;;;;;5051309;28;20233;-76
2023/01/04 08:13:31;;;;;;;4.30;3.90;;;;;;;;;;5051638;28;20202;-76
2023/01/04 08:15:58;;;;;;;4.37;3.67;;;;;;;;;;5051334;28;20242;-77
2023/01/04 08:18:27;;;;;;;4.93;3.50;;;;;;;;;;5051173;28;20229;-76
2023/01/04 08:21:02;;;;;;;3.43;3.13;;;;;;;;;;5051105;28;20230;-76
2023/01/04 08:23:29;;;;;;;4.80;3.23;;;;;;;;;;5051473;28;20209;-78
2023/01/04 08:25:56;;;;;;;4.47;3.20;;;;;;;;;;5051207;28;20230;-77
2023/01/04 08:28:23;;;;;;;4.30;3.90;;;;;;;;;;5051371;28;20226;-76
2023/01/04 08:30:50;;;;;;;3.83;3.53;;;;;;;;;;5051205;28;20230;-76
2023/01/04 08:33:17;;;;;;;3.87;3.43;;;;;;;;;;5051823;28;20221;-77
2023/01/04 08:35:45;;;;;;;3.70;3.40;;;;;;;;;;5050942;28;20701;-76
2023/01/04 08:38:12;;;;;;;4.27;3.70;;;;;;;;;;5051531;28;20233;-77
2023/01/04 08:40:39;;;;;;;4.03;3.63;;;;;;;;;;5050716;28;20237;-77
2023/01/04 08:43:06;;;;;;;3.77;3.27;;;;;;;;;;5051547;28;20213;-77
2023/01/04 08:45:33;;;;;;;5.27;3.70;;;;;;;;;;5050576;28;20284;-76
2023/01/04 08:48:00;;;;;;;3.53;3.23;;;;;;;;;;5051090;28;20226;-76
2023/01/04 08:50:27;;;;;;;4.77;4.17;;;;;;;;;;5050794;28;20262;-75
2023/01/04 08:52:56;;;;;;;5.50;4.10;;;;;;;;;;5051427;28;20555;-75
2023/01/04 08:55:23;;;;;;;3.30;3.07;;;;;;;;;;5051364;28;20242;-78
2023/01/04 08:57:50;;;;;;;3.87;3.57;;;;;;;;;;5051402;28;20237;-78
2023/01/04 09:00:20;;;;;;;3.67;3.37;;;;;;;;;;5050863;28;20229;-78
2023/01/04 09:02:47;;;;;;;7.37;3.50;;;;;;;;;;5051476;28;20221;-78
2023/01/04 09:05:14;;;;;;;4.43;3.40;;;;;;;;;;5050997;28;20241;-78
2023/01/04 09:07:42;;;;;;;4.67;3.50;;;;;;;;;;5052509;28;20205;-79
2023/01/04 09:10:10;;;;;;;5.63;4.23;;;;;;;;;;5054828;28;20550;-78
2023/01/04 09:12:38;;;;;;;3.73;3.17;;;;;;;;;;5054958;28;20643;-78
2023/01/04 09:15:05;;;;;;;4.40;4.00;;;;;;;;;;5054857;28;20201;-78
2023/01/04 09:17:32;;;;;;;3.37;3.10;;;;;;;;;;5054920;28;20212;-77
2023/01/04 09:19:59;;;;;;;4.80;2.93;;;;;;;;;;5055054;28;20232;-79
2023/01/04 09:22:26;;;;;;;3.80;3.50;;;;;;;;;;5054391;28;20242;-78
2023/01/04 09:24:54;;;;;;;5.33;4.87;;;;;;;;;;5055053;28;20210;-79
2023/01/04 09:27:22;;;;;;;6.13;4.03;;;;;;;;;;5054346;28;20333;-78
2023/01/04 09:29:49;;;;;;;5.13;3.77;;;;;;;;;;5054433;28;20210;-78
2023/01/04 09:32:16;;;;;;;3.63;3.33;;;;;;;;;;5052301;28;20229;-79
2023/01/04 09:34:43;;;;;;;4.37;3.63;;;;;;;;;;5038184;28;20207;-79
2023/01/04 09:37:10;;;;;;;3.20;3.00;;;;;;;;;;5054076;28;20241;-78
2023/01/04 09:39:38;;;;;;;3.63;3.33;;;;;;;;;;5054067;28;20582;-78
2023/01/04 09:42:06;;;;;;;2.93;2.73;;;;;;;;;;5054602;28;20243;-78
2023/01/04 09:44:40;;;;;;;2.80;2.60;;;;;;;;;;5054911;28;20210;-78
2023/01/04 09:47:08;;;;;;;4.57;3.33;;;;;;;;;;5052943;28;20238;-78
2023/01/04 09:49:38;;;;;;;2.97;2.73;;;;;;;;;;5054987;28;20229;-78
2023/01/04 09:52:10;;;;;;;3.70;3.33;;;;;;;;;;5054509;28;20709;-79
2023/01/04 09:54:42;;;;;;;3.43;3.10;;;;;;;;;;5055132;28;20273;-79
2023/01/04 09:57:14;;;;;;;4.83;3.37;;;;;;;;;;5054332;28;20242;-79
2023/01/04 09:59:42;;;;;;;3.53;3.23;;;;;;;;;;5054441;28;20270;-78
2023/01/04 10:02:12;;;;;;;2.03;1.93;;;;;;;;;;5054357;28;20233;-79
2023/01/04 10:04:43;;;;;;;2.90;2.70;;;;;;;;;;5054079;28;20551;-78
2023/01/04 10:07:18;;;;;;;3.17;2.93;;;;;;;;;;5048023;28;20234;-79
2023/01/04 10:09:45;;;;;;;3.63;2.50;;;;;;;;;;5033680;28;20229;-78
2023/01/04 10:12:20;;;;;;;2.23;2.13;;;;;;;;;;5033890;28;20235;-78
2023/01/04 10:14:57;;;;;;;2.83;2.63;;;;;;;;;;5034498;28;20210;-78
2023/01/04 10:17:33;;;;;;;2.47;2.27;;;;;;;;;;5033812;28;20241;-78
2023/01/04 10:20:08;;;;;;;2.57;2.37;;;;;;;;;;5034431;28;20234;-77
2023/01/04 10:22:39;;;;;;;3.70;2.80;;;;;;;;;;5034300;28;20203;-78
2023/01/04 10:25:16;;;;;;;2.30;2.20;;;;;;;;;;5034176;28;20209;-77
2023/01/04 10:27:47;;;;;;;2.83;2.63;;;;;;;;;;5034063;28;20248;-78
2023/01/04 10:30:25;;;;;;;2.40;2.20;;;;;;;;;;5033985;28;20194;-78
2023/01/04 10:32:55;;;;;;;2.33;2.13;;;;;;;;;;5034158;28;20210;-78
2023/01/04 10:35:24;;;;;;;2.17;2.07;;;;;;;;;;5032235;28;20179;-78
2023/01/04 10:37:53;;;;;;;2.60;2.30;;;;;;;;;;5046043;28;20230;-79
2023/01/04 10:40:20;;;;;;;2.63;2.43;;;;;;;;;;5044832;28;20225;-79
2023/01/04 10:42:52;;;;;;;2.90;2.70;;;;;;;;;;5053514;28;20210;-78
2023/01/04 10:45:23;;;;;;;2.77;2.30;;;;;;;;;;5053032;28;20271;-77
2023/01/04 10:47:57;;;;;;;3.40;2.40;;;;;;;;;;5053383;28;20229;-78
2023/01/04 10:50:28;;;;;;;1.90;1.80;;;;;;;;;;5053109;28;20696;-79
2023/01/04 10:52:56;;;;;;;4.37;3.00;;;;;;;;;;5053235;28;20202;-79
2023/01/04 10:55:27;;;;;;;2.20;2.10;;;;;;;;;;5052020;28;20622;-77
2023/01/04 10:57:58;;;;;;;2.30;2.17;;;;;;;;;;5052857;28;20226;-77
2023/01/04 11:00:29;;;;;;;3.33;2.67;;;;;;;;;;5052823;28;20287;-78
2023/01/04 11:02:59;;;;;;;3.00;2.50;;;;;;;;;;5053007;28;20206;-77
2023/01/04 11:05:27;;;;;;;2.53;2.33;;;;;;;;;;5052462;28;20589;-78
2023/01/04 11:07:56;;;;;;;3.03;2.37;;;;;;;;;;5052590;28;20221;-78
2023/01/04 11:10:25;;;;;;;2.27;1.80;;;;;;;;;;5052600;28;20237;-78
2023/01/04 11:12:53;;;;;;;2.87;2.53;;;;;;;;;;5052472;28;20670;-77
2023/01/04 11:15:20;;;;;;;4.07;2.97;;;;;;;;;;5052527;28;20260;-77
2023/01/04 11:17:48;;;;;;;2.47;1.97;;;;;;;;;;5052345;28;20230;-77
2023/01/04 11:20:16;;;;;;;2.50;2.30;;;;;;;;;;5052377;28;20218;-78
2023/01/04 11:22:45;;;;;;;2.40;2.20;;;;;;;;;;5053028;28;20206;-79
2023/01/04 11:25:14;;;;;;;3.13;2.47;;;;;;;;;;5052565;28;20210;-80
2023/01/04 11:27:45;;;;;;;2.10;2.00;;;;;;;;;;5052537;28;20209;-79
2023/01/04 11:30:16;;;;;;;2.60;2.50;;;;;;;;;;5050702;28;20285;-77
2023/01/04 11:32:46;;;;;;;2.60;2.37;;;;;;;;;;5048384;28;20666;-79
2023/01/04 11:35:15;;;;;;;2.30;2.10;;;;;;;;;;5046050;28;20198;-79
2023/01/04 11:37:42;;;;;;;2.53;2.37;;;;;;;;;;5069076;28;20197;-79
2023/01/04 11:40:20;;;;;;;2.00;1.90;;;;;;;;;;5071679;28;20225;-79
2023/01/04 11:42:48;;;;;;;2.17;1.83;;;;;;;;;;5071861;28;20231;-82
2023/01/04 11:45:20;;;;;;;2.70;2.50;;;;;;;;;;5071515;28;20700;-80
2023/01/04 11:47:49;;;;;;;2.53;2.33;;;;;;;;;;5071595;28;20225;-79
2023/01/04 11:50:35;;;;;;;2.90;2.30;;;;;;;;;;5071485;28;20228;-79
2023/01/04 11:53:02;;;;;;;2.37;2.17;;;;;;;;;;5072100;28;20197;-79
2023/01/04 11:55:30;;;;;;;2.77;1.80;;;;;;;;;;5071054;28;20233;-79
2023/01/04 11:58:06;;;;;;;2.07;1.97;;;;;;;;;;5066213;28;20221;-80
2023/01/04 12:00:33;;;;;;;3.27;2.37;;;;;;;;;;5047330;28;20325;-79
2023/01/04 12:03:11;;;;;;;2.40;2.20;;;;;;;;;;5051521;28;20202;-79
2023/01/04 12:05:39;;;;;;;1.90;1.80;;;;;;;;;;5051101;28;20276;-79
2023/01/04 12:08:07;;;;;;;1.90;1.80;;;;;;;;;;5051410;28;20264;-78
2023/01/04 12:10:34;;;;;;;1.93;1.83;;;;;;;;;;5051285;28;20234;-79
2023/01/04 12:13:02;;;;;;;2.10;2.00;;;;;;;;;;5051613;28;20210;-78
2023/01/04 12:15:33;;;;;;;2.40;2.10;;;;;;;;;;5039893;28;20277;-78
2023/01/04 12:18:03;;;;;;;2.20;2.00;;;;;;;;;;5031481;28;20237;-78
2023/01/04 12:20:30;;;;;;;2.40;2.30;;;;;;;;;;5031218;28;20245;-79
2023/01/04 12:22:58;;;;;;;2.87;1.83;;;;;;;;;;5031782;28;20226;-79
2023/01/04 12:25:29;;;;;;;2.00;1.90;;;;;;;;;;5031544;28;20257;-79
2023/01/04 12:27:56;;;;;;;2.50;2.30;;;;;;;;;;5031817;28;20223;-79
2023/01/04 12:30:34;;;;;;;2.10;2.00;;;;;;;;;;5031983;28;20230;-78
2023/01/04 12:33:01;;;;;;;2.30;2.10;;;;;;;;;;5041325;28;20821;-78
2023/01/04 12:36:05;;;;;;;1.80;1.70;;;;;;;;;;5051379;28;20237;-78
2023/01/04 12:38:51;;;;;;;2.20;2.00;;;;;;;;;;5051581;28;20257;-79
2023/01/04 12:41:19;;;;;;;2.40;1.97;;;;;;;;;;5052077;28;20232;-79
2023/01/04 12:43:48;;;;;;;2.20;2.00;;;;;;;;;;5055200;28;20206;-79
2023/01/04 12:49:44;;;;;;;8.00;2.00;;;;;;;;;;5054784;28;20225;-79
2023/01/04 12:52:36;;;;;;;1.90;1.80;;;;;;;;;;5054639;28;20244;-79
2023/01/04 12:55:04;;;;;;;2.87;2.57;;;;;;;;;;5054467;28;20187;-79
2023/01/04 12:57:33;;;;;;;2.17;2.07;;;;;;;;;;5055186;28;20696;-79
2023/01/04 13:00:01;;;;;;;3.47;2.70;;;;;;;;;;5054532;28;20674;-79
2023/01/04 13:02:29;;;;;;;2.00;1.90;;;;;;;;;;5054660;28;20226;-79
2023/01/04 13:04:57;;;;;;;2.63;2.17;;;;;;;;;;5054881;28;20587;-79
2023/01/04 13:07:28;;;;;;;1.90;1.80;;;;;;;;;;5054278;28;20257;-79
2023/01/04 13:09:58;;;;;;;3.43;2.50;;;;;;;;;;5054650;28;20210;-79
2023/01/04 13:12:41;;;;;;;3.87;2.30;;;;;;;;;;5069098;28;20225;-79
2023/01/04 13:15:15;;;;;;;3.30;2.80;;;;;;;;;;5057187;28;20206;-78
2023/01/04 13:17:44;;;;;;;4.87;2.90;;;;;;;;;;5054320;28;20199;-79
2023/01/04 13:20:15;;;;;;;2.63;2.30;;;;;;;;;;5054251;28;20191;-78
2023/01/04 13:22:45;;;;;;;3.30;2.93;;;;;;;;;;5054409;28;20225;-79
2023/01/04 13:25:15;;;;;;;2.40;2.20;;;;;;;;;;5054123;28;20210;-79
2023/01/04 13:27:56;;;;;;;2.17;1.93;;;;;;;;;;5053960;28;20210;-79
2023/01/04 13:30:33;;;;;;;2.93;2.50;;;;;;;;;;5053998;28;20324;-79
2023/01/04 13:33:00;;;;;;;2.70;2.07;;;;;;;;;;5048069;28;20230;-78
2023/01/04 13:35:27;;;;;;;2.27;2.10;;;;;;;;;;5051099;28;20614;-78
2023/01/04 13:37:54;;;;;;;3.23;2.40;;;;;;;;;;5054288;28;20260;-78
2023/01/04 13:40:23;;;;;;;2.40;2.20;;;;;;;;;;5036752;28;20265;-79
2023/01/04 13:42:51;;;;;;;3.63;2.53;;;;;;;;;;5053967;28;20214;-78
2023/01/04 13:45:42;;;;;;;3.07;2.40;;;;;;;;;;5053547;28;20271;-78
2023/01/04 13:48:12;;;;;;;2.60;2.43;;;;;;;;;;5053759;28;20615;-78
2023/01/04 13:50:45;;;;;;;4.93;3.00;;;;;;;;;;5053563;28;20287;-78
2023/01/04 13:53:18;;;;;;;2.00;1.90;;;;;;;;;;5053363;28;20193;-78
2023/01/04 13:55:50;;;;;;;2.60;2.40;;;;;;;;;;5053446;28;20817;-78
2023/01/04 13:58:18;;;;;;;2.97;2.53;;;;;;;;;;5053864;28;20234;-79
2023/01/04 14:00:45;;;;;;;5.67;2.60;;;;;;;;;;5052905;28;20716;-78
2023/01/04 14:03:17;;;;;;;3.10;2.40;;;;;;;;;;5053421;28;20205;-78
2023/01/04 14:05:47;;;;;;;2.00;1.90;;;;;;;;;;5053034;28;20598;-79
2023/01/04 14:08:19;;;;;;;2.53;2.33;;;;;;;;;;5051943;28;20226;-79
2023/01/04 14:10:46;;;;;;;2.70;2.50;;;;;;;;;;5053596;28;20639;-78
2023/01/04 14:13:15;;;;;;;3.20;2.30;;;;;;;;;;5053601;28;20198;-79
2023/01/04 14:15:43;;;;;;;2.37;2.17;;;;;;;;;;5053159;28;20299;-79
2023/01/04 14:18:24;;;;;;;2.20;2.10;;;;;;;;;;5053321;28;20237;-79
2023/01/04 14:20:51;;;;;;;2.93;2.50;;;;;;;;;;5033504;28;20268;-78
2023/01/04 14:23:29;;;;;;;3.27;2.33;;;;;;;;;;5034229;28;20211;-78
2023/01/04 14:25:56;;;;;;;2.17;2.07;;;;;;;;;;5035674;28;20703;-79
2023/01/04 14:28:29;;;;;;;2.00;1.90;;;;;;;;;;5053267;28;20646;-78
2023/01/04 14:30:57;;;;;;;2.40;2.17;;;;;;;;;;5052527;28;20226;-78
2023/01/04 14:33:29;;;;;;;1.50;1.43;;;;;;;;;;5052967;28;20210;-78
2023/01/04 14:36:02;;;;;;;2.33;2.13;;;;;;;;;;5032499;28;20772;-78
2023/01/04 14:38:30;;;;;;;1.90;1.80;;;;;;;;;;5032734;28;20223;-77
2023/01/04 14:40:57;;;;;;;2.67;2.00;;;;;;;;;;5038545;28;20247;-78
2023/01/04 14:43:33;;;;;;;2.43;2.00;;;;;;;;;;5057559;28;20661;-79
2023/01/04 14:46:00;;;;;;;2.80;2.20;;;;;;;;;;5051972;28;20663;-78
2023/01/04 14:48:30;;;;;;;2.83;2.20;;;;;;;;;;5052627;28;20226;-79
2023/01/04 14:50:57;;;;;;;2.40;2.30;;;;;;;;;;5052671;28;20230;-78
2023/01/04 14:53:24;;;;;;;1.67;1.57;;;;;;;;;;5052816;28;20547;-79
2023/01/04 14:55:53;;;;;;;2.13;1.93;;;;;;;;;;5052116;28;20234;-79
2023/01/04 14:58:20;;;;;;;2.07;1.87;;;;;;;;;;5052401;28;20228;-79
2023/01/04 15:00:47;;;;;;;2.70;2.50;;;;;;;;;;5052035;28;20230;-79
2023/01/04 15:03:14;;;;;;;2.13;2.00;;;;;;;;;;5052907;28;20301;-79
2023/01/04 15:05:43;;;;;;;2.37;2.17;;;;;;;;;;5050747;28;20240;-79
2023/01/04 15:08:10;;;;;;;2.10;1.90;;;;;;;;;;5052563;28;20628;-79
2023/01/04 15:10:37;;;;;;;2.10;2.00;;;;;;;;;;5051956;28;20241;-79
2023/01/04 15:13:04;;;;;;;3.00;1.80;;;;;;;;;;5052498;28;20213;-79
2023/01/04 15:15:32;;;;;;;1.87;1.77;;;;;;;;;;5045931;28;20736;-79
2023/01/04 15:17:59;;;;;;;2.33;1.90;;;;;;;;;;5051990;28;20328;-78
2023/01/04 15:20:26;;;;;;;2.20;2.10;;;;;;;;;;5051774;28;20241;-80
2023/01/04 15:22:55;;;;;;;1.97;1.87;;;;;;;;;;5051912;28;20243;-79
2023/01/04 15:25:22;;;;;;;1.97;1.87;;;;;;;;;;5050700;28;20236;-79
2023/01/04 15:27:49;;;;;;;2.53;2.10;;;;;;;;;;5051686;28;20224;-78
2023/01/04 15:30:16;;;;;;;2.83;2.03;;;;;;;;;;5051153;28;20277;-78
2023/01/04 15:32:43;;;;;;;1.97;1.87;;;;;;;;;;5051614;28;20210;-79
2023/01/04 15:35:14;;;;;;;1.50;1.40;;;;;;;;;;5051293;28;20213;-78
2023/01/04 15:37:41;;;;;;;1.83;1.73;;;;;;;;;;5051902;28;20217;-79